Time;durP1;ratioP1;P1;durP2;ratioP2;P2;SDS_P1;SDS_P2;PMS_P1;PMS_P2;Temp;Humidity;BMP_temperature;BMP_pressure;BME280_temperature;BME280_humidity;BME280_pressure;Samples;Min_cycle;Max_cycle;Signal;HPM_P1;HPM_P2
2024/03/27 00:01:18;;;;;;;0.15;0.05;;;9.30;98.60;;;;;;4146776;28;20058;-56
2024/03/27 00:03:19;;;;;;;0.10;0.10;;;9.40;99.60;;;;;;4146198;28;20056;-56
2024/03/27 00:05:21;;;;;;;0.20;0.20;;;9.40;99.60;;;;;;4145940;28;20091;-55
2024/03/27 00:07:23;;;;;;;0.10;0.10;;;9.50;99.90;;;;;;4146252;28;20079;-56
2024/03/27 00:09:26;;;;;;;1.55;0.40;;;9.40;99.40;;;;;;4146248;28;20054;-56
2024/03/27 00:11:28;;;;;;;1.83;0.40;;;9.40;99.20;;;;;;4146221;28;20062;-57
2024/03/27 00:13:29;;;;;;;3.20;0.10;;;9.40;99.70;;;;;;4150655;28;20045;-56
2024/03/27 00:15:31;;;;;;;0.45;0.45;;;9.50;99.40;;;;;;4145878;28;20072;-56
2024/03/27 00:17:33;;;;;;;0.25;0.25;;;9.40;99.00;;;;;;4146046;28;20052;-56
2024/03/27 00:19:35;;;;;;;0.08;0.08;;;9.30;99.00;;;;;;4146033;28;20049;-56
2024/03/27 00:21:37;;;;;;;0.25;0.10;;;9.40;99.10;;;;;;4145959;28;20050;-55
2024/03/27 00:23:38;;;;;;;0.10;0.10;;;9.30;99.30;;;;;;4146079;28;20080;-56
2024/03/27 00:25:42;;;;;;;0.10;0.10;;;9.40;99.60;;;;;;4145983;28;20052;-54
2024/03/27 00:27:43;;;;;;;0.30;0.10;;;9.30;99.50;;;;;;4145639;28;20054;-54
2024/03/27 00:29:45;;;;;;;0.20;0.20;;;9.20;99.40;;;;;;4145391;28;20540;-55
2024/03/27 00:31:47;;;;;;;0.73;0.50;;;9.30;99.90;;;;;;4145961;28;20052;-55
2024/03/27 00:33:48;;;;;;;0.30;0.10;;;9.30;99.60;;;;;;4146069;28;20054;-54
2024/03/27 00:35:54;;;;;;;0.20;0.15;;;9.20;99.50;;;;;;4148982;28;20129;-57
2024/03/27 00:37:55;;;;;;;0.10;0.10;;;9.20;99.80;;;;;;4148759;28;20057;-57
2024/03/27 00:39:57;;;;;;;0.15;0.15;;;9.40;99.90;;;;;;4148808;28;20050;-57
2024/03/27 00:42:00;;;;;;;0.10;0.10;;;9.40;99.60;;;;;;4132677;28;20057;-57
2024/03/27 00:44:02;;;;;;;0.20;0.20;;;9.30;99.90;;;;;;4148560;28;20052;-57
2024/03/27 00:46:05;;;;;;;0.17;0.17;;;9.20;99.90;;;;;;4148786;28;20482;-57
2024/03/27 00:48:07;;;;;;;0.15;0.10;;;9.30;99.90;;;;;;4148468;28;20054;-57
2024/03/27 00:50:09;;;;;;;0.15;0.15;;;9.30;99.70;;;;;;4148484;28;20050;-56
2024/03/27 00:52:10;;;;;;;0.30;0.20;;;9.30;99.90;;;;;;4132211;28;20054;-56
2024/03/27 00:54:12;;;;;;;0.20;0.20;;;9.20;99.90;;;;;;4164723;28;20421;-56
2024/03/27 00:56:14;;;;;;;0.75;0.30;;;9.20;99.60;;;;;;4148409;28;20512;-56
2024/03/27 00:58:18;;;;;;;0.15;0.15;;;9.20;99.80;;;;;;4147956;28;20076;-56
2024/03/27 01:00:20;;;;;;;0.22;0.15;;;9.30;99.90;;;;;;4148523;28;20060;-57
2024/03/27 01:02:22;;;;;;;0.73;0.35;;;9.40;99.90;;;;;;4148484;28;20537;-56
2024/03/27 01:04:23;;;;;;;0.20;0.20;;;9.40;99.90;;;;;;4148540;28;20050;-57
2024/03/27 01:06:25;;;;;;;0.68;0.38;;;9.30;99.90;;;;;;4148108;28;20056;-57
2024/03/27 01:08:27;;;;;;;1.65;0.45;;;9.30;99.60;;;;;;4148313;28;20058;-57
2024/03/27 01:10:28;;;;;;;0.93;0.90;;;9.30;99.90;;;;;;4148265;28;20058;-57
2024/03/27 01:12:30;;;;;;;0.55;0.20;;;9.30;99.90;;;;;;4147768;28;20395;-57
2024/03/27 01:14:33;;;;;;;2.45;0.95;;;9.30;99.90;;;;;;4148417;28;20054;-57
2024/03/27 01:16:35;;;;;;;0.10;0.10;;;9.30;99.90;;;;;;4147863;28;20042;-57
2024/03/27 01:18:36;;;;;;;0.30;0.30;;;9.30;99.90;;;;;;4147894;28;20065;-56
2024/03/27 01:20:38;;;;;;;1.80;0.35;;;9.30;99.90;;;;;;4147958;28;20582;-56
2024/03/27 01:22:40;;;;;;;0.43;0.30;;;9.40;99.90;;;;;;4147967;28;20052;-57
2024/03/27 01:24:42;;;;;;;0.40;0.25;;;9.30;99.90;;;;;;4148110;28;20056;-61
2024/03/27 01:26:43;;;;;;;0.30;0.20;;;9.30;99.90;;;;;;4147672;28;20054;-57
2024/03/27 01:28:45;;;;;;;0.10;0.10;;;9.30;99.90;;;;;;4148120;28;20056;-57
2024/03/27 01:30:48;;;;;;;0.22;0.22;;;9.30;99.90;;;;;;4131835;28;20065;-57
2024/03/27 01:32:50;;;;;;;0.50;0.40;;;9.30;99.90;;;;;;4147835;28;20048;-58
2024/03/27 01:34:51;;;;;;;1.17;0.82;;;9.30;99.90;;;;;;4147839;28;20104;-57
2024/03/27 01:36:53;;;;;;;0.60;0.30;;;9.20;99.90;;;;;;4147702;28;20049;-58
2024/03/27 01:38:54;;;;;;;0.35;0.30;;;9.30;99.90;;;;;;4147896;28;20057;-57
2024/03/27 01:40:56;;;;;;;2.55;0.70;;;9.30;99.90;;;;;;4147646;28;20053;-57
2024/03/27 01:42:58;;;;;;;0.28;0.20;;;9.20;99.90;;;;;;4147611;28;20046;-54
2024/03/27 01:45:00;;;;;;;0.20;0.20;;;9.20;99.90;;;;;;4147907;28;20132;-55
2024/03/27 01:47:03;;;;;;;1.45;0.85;;;9.20;99.90;;;;;;4146914;28;20428;-56
2024/03/27 01:49:05;;;;;;;0.20;0.20;;;9.30;99.90;;;;;;4147751;28;20117;-57
2024/03/27 01:51:08;;;;;;;0.80;0.57;;;9.20;99.90;;;;;;4147668;28;20076;-57
2024/03/27 01:53:11;;;;;;;0.47;0.47;;;9.30;99.90;;;;;;4147788;28;20406;-58
2024/03/27 01:55:13;;;;;;;0.85;0.32;;;9.30;99.90;;;;;;4146911;28;20527;-56
2024/03/27 01:57:16;;;;;;;0.52;0.30;;;9.20;99.90;;;;;;4147359;28;20058;-57
2024/03/27 01:59:18;;;;;;;0.20;0.20;;;9.20;99.90;;;;;;4147460;28;20050;-57
2024/03/27 02:01:19;;;;;;;0.40;0.25;;;9.10;99.90;;;;;;4147469;28;20517;-57
2024/03/27 02:03:22;;;;;;;0.73;0.40;;;9.10;99.90;;;;;;4147447;28;20068;-57
2024/03/27 02:05:24;;;;;;;0.77;0.43;;;9.20;99.90;;;;;;4147354;28;20060;-57
2024/03/27 02:07:27;;;;;;;0.22;0.20;;;9.30;99.90;;;;;;4147463;28;20046;-57
2024/03/27 02:09:29;;;;;;;0.20;0.20;;;9.40;99.90;;;;;;4147128;28;20432;-58
2024/03/27 02:11:30;;;;;;;0.35;0.25;;;9.40;99.90;;;;;;4146874;28;20052;-57
2024/03/27 02:13:32;;;;;;;0.50;0.50;;;9.30;99.90;;;;;;4147403;28;20050;-58
2024/03/27 02:15:34;;;;;;;0.93;0.32;;;9.30;99.90;;;;;;4147314;28;20057;-57
2024/03/27 02:17:35;;;;;;;0.35;0.35;;;9.30;99.90;;;;;;4146922;28;20083;-56
2024/03/27 02:19:38;;;;;;;0.13;0.13;;;9.40;99.90;;;;;;4147247;28;20496;-57
2024/03/27 02:21:40;;;;;;;0.20;0.20;;;9.40;99.90;;;;;;4147140;28;20042;-57
2024/03/27 02:23:48;;;;;;;0.20;0.20;;;9.30;99.90;;;;;;4147151;28;20497;-57
2024/03/27 02:25:56;;;;;;;0.30;0.20;;;9.30;99.90;;;;;;4146628;28;20057;-57
2024/03/27 02:27:59;;;;;;;0.63;0.30;;;9.30;99.90;;;;;;4147141;28;20050;-57
2024/03/27 02:30:01;;;;;;;0.75;0.60;;;9.20;99.90;;;;;;4146887;28;20050;-57
2024/03/27 02:32:03;;;;;;;0.10;0.10;;;9.10;99.90;;;;;;4146846;28;20060;-57
2024/03/27 02:34:05;;;;;;;0.38;0.38;;;9.10;99.90;;;;;;4146699;28;20050;-59
2024/03/27 02:36:07;;;;;;;0.40;0.30;;;9.30;99.90;;;;;;4130474;28;20116;-57
2024/03/27 02:38:08;;;;;;;0.22;0.17;;;9.20;99.90;;;;;;4146775;28;20064;-58
2024/03/27 02:40:11;;;;;;;1.08;0.63;;;9.30;99.90;;;;;;4146345;28;20060;-57
2024/03/27 02:42:12;;;;;;;0.47;0.47;;;9.40;99.90;;;;;;4146626;28;20053;-57
2024/03/27 02:44:15;;;;;;;0.20;0.20;;;9.40;99.90;;;;;;4146705;28;20054;-57
2024/03/27 02:46:17;;;;;;;0.10;0.10;;;9.20;99.90;;;;;;4146903;28;20053;-57
2024/03/27 02:48:18;;;;;;;0.20;0.20;;;9.20;99.90;;;;;;4146633;28;20058;-55
2024/03/27 02:50:21;;;;;;;1.42;0.88;;;9.30;99.90;;;;;;4151340;28;20052;-58
2024/03/27 02:52:22;;;;;;;0.57;0.20;;;9.30;99.90;;;;;;4146605;28;20050;-58
2024/03/27 02:54:24;;;;;;;2.25;1.27;;;9.30;99.90;;;;;;4146444;28;20052;-57
2024/03/27 02:56:25;;;;;;;0.40;0.30;;;9.30;99.90;;;;;;4146497;28;20050;-57
2024/03/27 02:58:27;;;;;;;0.85;0.52;;;9.30;99.90;;;;;;4146673;28;20452;-58
2024/03/27 03:00:30;;;;;;;0.22;0.20;;;9.30;99.90;;;;;;4146362;28;20067;-58
2024/03/27 03:02:31;;;;;;;0.85;0.80;;;9.40;99.90;;;;;;4146627;28;20052;-58
2024/03/27 03:04:34;;;;;;;0.20;0.20;;;9.40;99.90;;;;;;4146488;28;20048;-58
2024/03/27 03:06:36;;;;;;;0.17;0.17;;;9.40;99.90;;;;;;4146445;28;20046;-58
2024/03/27 03:08:38;;;;;;;0.40;0.20;;;9.40;99.90;;;;;;4146283;28;20521;-57
2024/03/27 03:10:39;;;;;;;0.85;0.57;;;9.30;99.90;;;;;;4146501;28;20052;-58
2024/03/27 03:12:41;;;;;;;0.50;0.30;;;9.30;99.90;;;;;;4146208;28;20079;-58
2024/03/27 03:14:43;;;;;;;1.60;0.38;;;9.20;99.90;;;;;;4146456;28;20061;-57
2024/03/27 03:16:46;;;;;;;0.20;0.20;;;9.20;99.90;;;;;;4146588;28;20420;-57
2024/03/27 03:18:47;;;;;;;1.40;0.17;;;9.20;99.90;;;;;;4146202;28;20064;-57
2024/03/27 03:20:49;;;;;;;0.80;0.80;;;9.20;99.90;;;;;;4146337;28;20060;-59
2024/03/27 03:22:52;;;;;;;0.73;0.63;;;9.20;99.90;;;;;;4145922;28;20056;-56
2024/03/27 03:24:54;;;;;;;0.25;0.20;;;9.20;99.90;;;;;;4146389;28;20045;-57
2024/03/27 03:26:55;;;;;;;3.13;1.35;;;9.20;99.90;;;;;;4146085;28;20060;-57
2024/03/27 03:28:57;;;;;;;0.80;0.30;;;9.30;99.90;;;;;;4146195;28;20054;-57
2024/03/27 03:31:02;;;;;;;0.10;0.10;;;9.20;99.90;;;;;;4146255;28;20450;-57
2024/03/27 03:33:05;;;;;;;1.50;0.20;;;9.20;99.90;;;;;;4146176;28;20050;-57
2024/03/27 03:35:07;;;;;;;0.77;0.40;;;9.20;99.90;;;;;;4146121;28;20046;-57
2024/03/27 03:37:09;;;;;;;0.45;0.40;;;9.30;99.90;;;;;;4145883;28;20050;-59
2024/03/27 03:39:11;;;;;;;0.15;0.15;;;9.30;99.90;;;;;;4145913;28;20058;-57
2024/03/27 03:41:13;;;;;;;0.30;0.20;;;9.40;99.90;;;;;;4146271;28;20054;-57
2024/03/27 03:43:15;;;;;;;0.57;0.57;;;9.30;99.90;;;;;;4145932;28;20068;-57
2024/03/27 03:45:17;;;;;;;0.30;0.30;;;9.30;99.90;;;;;;4146007;28;20121;-57
2024/03/27 03:47:18;;;;;;;0.20;0.20;;;9.30;99.90;;;;;;4146242;28;20050;-56
2024/03/27 03:49:21;;;;;;;1.33;0.90;;;9.30;99.90;;;;;;4146172;28;20049;-57
2024/03/27 03:51:23;;;;;;;0.70;0.20;;;9.30;99.90;;;;;;4145613;28;20529;-57
2024/03/27 03:53:24;;;;;;;0.25;0.25;;;9.30;99.90;;;;;;4146397;28;20046;-57
2024/03/27 03:55:26;;;;;;;0.30;0.30;;;9.30;99.90;;;;;;4146242;28;20054;-59
2024/03/27 03:57:28;;;;;;;0.55;0.30;;;9.30;99.90;;;;;;4146310;28;20046;-60
2024/03/27 03:59:29;;;;;;;0.35;0.30;;;9.20;99.90;;;;;;4146412;28;20057;-57
2024/03/27 04:01:31;;;;;;;0.30;0.30;;;9.20;99.90;;;;;;4146036;28;20046;-57
2024/03/27 04:03:33;;;;;;;0.47;0.25;;;9.30;99.90;;;;;;4146127;28;20404;-57
2024/03/27 04:05:37;;;;;;;0.38;0.35;;;9.30;99.90;;;;;;4146399;28;20339;-57
2024/03/27 04:07:39;;;;;;;3.40;1.15;;;9.40;99.90;;;;;;4145893;28;20262;-57
2024/03/27 04:09:40;;;;;;;0.28;0.28;;;9.40;99.90;;;;;;4147646;28;20054;-56
2024/03/27 04:11:42;;;;;;;0.20;0.20;;;9.40;99.90;;;;;;4149367;28;20054;-56
2024/03/27 04:13:44;;;;;;;0.30;0.20;;;9.40;99.90;;;;;;4149395;28;20493;-57
2024/03/27 04:15:46;;;;;;;0.20;0.20;;;9.40;99.90;;;;;;4149060;28;20041;-56
2024/03/27 04:17:48;;;;;;;0.60;0.30;;;9.40;99.90;;;;;;4148709;28;20505;-55
2024/03/27 04:19:50;;;;;;;0.75;0.55;;;9.40;99.90;;;;;;4148807;28;20049;-57
2024/03/27 04:21:52;;;;;;;0.50;0.50;;;9.40;99.90;;;;;;4148596;28;20468;-56
2024/03/27 04:23:54;;;;;;;0.40;0.40;;;9.50;99.90;;;;;;4149566;28;20103;-58
2024/03/27 04:25:56;;;;;;;0.77;0.40;;;9.40;99.90;;;;;;4148951;28;20053;-57
2024/03/27 04:27:57;;;;;;;0.65;0.30;;;9.40;99.90;;;;;;4149226;28;20076;-57
2024/03/27 04:29:59;;;;;;;0.30;0.30;;;9.40;99.90;;;;;;4149157;28;20510;-57
2024/03/27 04:32:01;;;;;;;1.23;0.60;;;9.30;99.90;;;;;;4149003;28;20117;-57
2024/03/27 04:34:02;;;;;;;0.32;0.32;;;9.30;99.90;;;;;;4148846;28;20068;-57
2024/03/27 04:36:05;;;;;;;0.32;0.30;;;9.30;99.90;;;;;;4148265;28;20045;-57
2024/03/27 04:38:08;;;;;;;0.68;0.68;;;9.40;99.90;;;;;;4148695;28;20421;-57
2024/03/27 04:40:11;;;;;;;2.17;0.95;;;9.30;99.90;;;;;;4148595;28;20054;-57
2024/03/27 04:42:14;;;;;;;0.28;0.20;;;9.30;99.90;;;;;;4148632;28;20052;-57
2024/03/27 04:44:15;;;;;;;0.10;0.10;;;9.40;99.90;;;;;;4148775;28;20052;-57
2024/03/27 04:46:17;;;;;;;0.70;0.70;;;9.40;99.90;;;;;;4132342;28;20046;-57
2024/03/27 04:48:18;;;;;;;0.40;0.20;;;9.20;99.90;;;;;;4148674;28;20152;-57
2024/03/27 04:50:20;;;;;;;0.20;0.20;;;9.30;99.90;;;;;;4148140;28;20447;-57
2024/03/27 04:52:22;;;;;;;0.50;0.25;;;9.20;99.90;;;;;;4148728;28;20054;-57
2024/03/27 04:54:25;;;;;;;0.43;0.30;;;9.30;99.90;;;;;;4148612;28;20092;-57
2024/03/27 04:56:26;;;;;;;0.25;0.20;;;9.30;99.90;;;;;;4148502;28;20084;-57
2024/03/27 04:58:28;;;;;;;0.45;0.20;;;9.30;99.90;;;;;;4148617;28;20045;-58
2024/03/27 05:00:30;;;;;;;0.55;0.20;;;9.30;99.90;;;;;;4148166;28;20054;-58
2024/03/27 05:02:31;;;;;;;0.35;0.30;;;9.30;99.90;;;;;;4148423;28;20056;-58
2024/03/27 05:04:33;;;;;;;0.15;0.15;;;9.40;99.90;;;;;;4132022;28;20478;-57
2024/03/27 05:06:41;;;;;;;0.75;0.50;;;9.40;99.90;;;;;;4148400;28;20512;-57
2024/03/27 05:08:43;;;;;;;1.08;0.52;;;9.40;99.90;;;;;;4148562;28;20050;-57
2024/03/27 05:10:46;;;;;;;0.30;0.30;;;9.40;99.90;;;;;;4148410;28;20056;-57
2024/03/27 05:12:48;;;;;;;0.95;0.22;;;9.40;99.90;;;;;;4148248;28;20050;-57
2024/03/27 05:14:49;;;;;;;0.52;0.22;;;9.30;99.90;;;;;;4148504;28;20068;-57
2024/03/27 05:16:51;;;;;;;0.20;0.10;;;9.40;99.90;;;;;;4148004;28;20491;-57
2024/03/27 05:18:53;;;;;;;0.20;0.20;;;9.40;99.90;;;;;;4147677;28;20054;-57
2024/03/27 05:20:54;;;;;;;0.40;0.20;;;9.30;99.90;;;;;;4146887;28;20050;-58
2024/03/27 05:22:56;;;;;;;0.20;0.05;;;9.30;99.90;;;;;;4135882;28;20058;-57
2024/03/27 05:24:59;;;;;;;0.28;0.28;;;9.30;99.90;;;;;;4131852;28;20486;-57
2024/03/27 05:27:03;;;;;;;0.20;0.20;;;9.40;99.90;;;;;;4131806;28;20083;-57
2024/03/27 05:29:04;;;;;;;0.82;0.60;;;9.30;99.90;;;;;;4131562;28;20051;-58
2024/03/27 05:31:06;;;;;;;0.73;0.20;;;9.30;99.90;;;;;;4131728;28;20056;-58
2024/03/27 05:33:07;;;;;;;0.70;0.38;;;9.30;99.90;;;;;;4131649;28;20500;-56
2024/03/27 05:35:09;;;;;;;0.50;0.28;;;9.30;99.90;;;;;;4131683;28;20046;-58
2024/03/27 05:37:11;;;;;;;0.15;0.15;;;9.30;99.90;;;;;;4131702;28;20065;-57
2024/03/27 05:39:13;;;;;;;0.30;0.30;;;9.30;99.90;;;;;;4131661;28;20491;-56
2024/03/27 05:41:14;;;;;;;0.75;0.50;;;9.20;99.90;;;;;;4131694;28;20548;-57
2024/03/27 05:43:19;;;;;;;0.60;0.20;;;9.30;99.90;;;;;;4131729;28;20434;-57
2024/03/27 05:45:20;;;;;;;0.20;0.20;;;9.20;99.90;;;;;;4131537;28;20051;-57
2024/03/27 05:47:22;;;;;;;0.30;0.30;;;9.20;99.90;;;;;;4131117;28;20042;-55
2024/03/27 05:49:26;;;;;;;0.17;0.17;;;9.20;99.90;;;;;;4131378;28;20054;-56
2024/03/27 05:51:29;;;;;;;0.28;0.28;;;9.30;99.90;;;;;;4131406;28;20054;-56
2024/03/27 05:53:31;;;;;;;0.40;0.40;;;9.30;99.90;;;;;;4131734;28;20525;-55
2024/03/27 05:55:32;;;;;;;0.43;0.20;;;9.30;99.90;;;;;;4131298;28;20076;-56
2024/03/27 05:57:34;;;;;;;0.50;0.40;;;9.30;99.90;;;;;;4131434;28;20076;-57
2024/03/27 05:59:37;;;;;;;0.10;0.10;;;9.30;99.90;;;;;;4131476;28;20065;-55
2024/03/27 06:01:39;;;;;;;0.50;0.30;;;9.30;99.90;;;;;;4135536;28;20309;-56
2024/03/27 06:03:41;;;;;;;4.13;1.27;;;9.30;99.90;;;;;;4131175;28;20058;-56
2024/03/27 06:05:43;;;;;;;0.40;0.20;;;9.30;99.90;;;;;;4131070;28;20064;-56
2024/03/27 06:07:45;;;;;;;0.25;0.10;;;9.30;99.90;;;;;;4131283;28;20790;-55
2024/03/27 06:09:47;;;;;;;0.30;0.30;;;9.30;99.90;;;;;;4131613;28;20057;-55
2024/03/27 06:11:49;;;;;;;1.65;0.13;;;9.30;99.90;;;;;;4131048;28;20058;-57
2024/03/27 06:13:51;;;;;;;0.20;0.20;;;9.40;99.90;;;;;;4131075;28;20052;-56
2024/03/27 06:15:54;;;;;;;0.88;0.22;;;9.30;99.90;;;;;;4134648;28;20049;-57
2024/03/27 06:17:56;;;;;;;0.20;0.20;;;9.30;99.90;;;;;;4130779;28;20074;-57
2024/03/27 06:19:57;;;;;;;0.20;0.20;;;9.40;99.90;;;;;;4131254;28;20046;-57
2024/03/27 06:21:59;;;;;;;0.13;0.13;;;9.30;99.90;;;;;;4131231;28;20046;-58
2024/03/27 06:24:01;;;;;;;0.55;0.22;;;9.40;99.90;;;;;;4130982;28;20056;-55
2024/03/27 06:26:03;;;;;;;0.57;0.47;;;9.40;99.50;;;;;;4130870;28;20469;-54
2024/03/27 06:28:05;;;;;;;1.10;0.20;;;9.30;99.90;;;;;;4130875;28;20054;-55
2024/03/27 06:30:09;;;;;;;0.38;0.30;;;9.40;99.90;;;;;;4130961;28;20072;-56
2024/03/27 06:32:11;;;;;;;0.52;0.47;;;9.30;99.90;;;;;;4129912;28;20058;-57
2024/03/27 06:34:13;;;;;;;0.30;0.30;;;9.30;99.90;;;;;;4130771;28;20426;-56
2024/03/27 06:36:15;;;;;;;0.20;0.20;;;9.40;99.90;;;;;;4130834;28;20054;-57
2024/03/27 06:38:17;;;;;;;0.85;0.13;;;9.20;99.70;;;;;;4130831;28;20060;-53
2024/03/27 06:40:19;;;;;;;1.20;0.30;;;9.20;99.60;;;;;;4130482;28;20051;-55
2024/03/27 06:42:21;;;;;;;6.72;1.45;;;9.20;99.70;;;;;;4130608;28;20048;-55
2024/03/27 06:44:23;;;;;;;0.40;0.22;;;9.20;99.90;;;;;;4130753;28;20058;-54
2024/03/27 06:46:24;;;;;;;0.30;0.30;;;9.30;99.70;;;;;;4130159;28;20058;-55
2024/03/27 06:48:33;;;;;;;0.30;0.30;;;9.30;99.40;;;;;;4130841;28;20430;-57
2024/03/27 06:50:34;;;;;;;0.20;0.20;;;9.20;99.50;;;;;;4130753;28;20472;-57
2024/03/27 06:52:36;;;;;;;0.30;0.25;;;9.20;99.50;;;;;;4130479;28;20050;-57
2024/03/27 06:54:37;;;;;;;0.65;0.17;;;9.30;99.60;;;;;;4130464;28;20061;-58
2024/03/27 06:56:39;;;;;;;1.83;0.30;;;9.20;99.80;;;;;;4130567;28;20691;-57
2024/03/27 06:58:41;;;;;;;0.17;0.13;;;9.20;99.50;;;;;;4130621;28;20050;-57
2024/03/27 07:00:42;;;;;;;0.20;0.20;;;9.30;99.30;;;;;;4130001;28;20061;-57
2024/03/27 07:02:46;;;;;;;0.20;0.20;;;9.40;99.70;;;;;;4130370;28;20050;-56
2024/03/27 07:04:49;;;;;;;1.65;0.22;;;9.40;99.60;;;;;;4130216;28;20059;-56
2024/03/27 07:06:50;;;;;;;1.08;0.17;;;9.40;99.60;;;;;;4130451;28;20050;-56
2024/03/27 07:08:52;;;;;;;0.15;0.15;;;9.30;99.70;;;;;;4130647;28;20050;-57
2024/03/27 07:11:00;;;;;;;0.28;0.20;;;9.40;99.50;;;;;;4130673;28;20054;-58
2024/03/27 07:13:02;;;;;;;0.70;0.30;;;9.40;99.20;;;;;;4130567;28;20079;-57
2024/03/27 07:15:06;;;;;;;0.10;0.10;;;9.40;99.30;;;;;;4130342;28;20717;-56
2024/03/27 07:17:08;;;;;;;0.77;0.30;;;9.40;99.10;;;;;;4130260;28;20065;-56
2024/03/27 07:19:09;;;;;;;0.10;0.10;;;9.40;98.90;;;;;;4130514;28;20054;-56
2024/03/27 07:21:12;;;;;;;1.55;0.20;;;9.40;98.80;;;;;;4130191;28;20054;-56
2024/03/27 07:23:14;;;;;;;0.13;0.10;;;9.30;98.40;;;;;;4145180;28;20050;-57
2024/03/27 07:25:16;;;;;;;0.20;0.20;;;9.30;98.70;;;;;;4146542;28;20050;-56
2024/03/27 07:27:18;;;;;;;0.35;0.30;;;9.40;99.20;;;;;;4146652;28;20076;-56
2024/03/27 07:29:19;;;;;;;0.50;0.30;;;9.30;98.60;;;;;;4146575;28;20052;-56
2024/03/27 07:31:21;;;;;;;0.20;0.20;;;9.30;99.00;;;;;;4146473;28;20517;-57
2024/03/27 07:33:23;;;;;;;0.32;0.30;;;9.20;99.00;;;;;;4146442;28;20056;-55
2024/03/27 07:35:24;;;;;;;0.20;0.20;;;9.20;99.10;;;;;;4146429;28;20095;-56
2024/03/27 07:37:27;;;;;;;1.20;0.60;;;9.20;99.50;;;;;;4146111;28;20050;-55
2024/03/27 07:39:29;;;;;;;2.72;0.60;;;9.30;99.50;;;;;;4146151;28;20042;-56
2024/03/27 07:41:30;;;;;;;0.43;0.40;;;9.20;99.30;;;;;;4146325;28;20052;-56
2024/03/27 07:43:32;;;;;;;0.38;0.20;;;9.20;99.40;;;;;;4146099;28;20053;-56
2024/03/27 07:45:34;;;;;;;0.63;0.30;;;9.30;99.10;;;;;;4149346;28;20104;-56
2024/03/27 07:47:36;;;;;;;0.43;0.20;;;9.20;99.10;;;;;;4149616;28;20460;-56
2024/03/27 07:49:38;;;;;;;0.47;0.20;;;9.20;98.70;;;;;;4150031;28;20416;-56
2024/03/27 07:51:40;;;;;;;5.53;1.02;;;9.00;98.50;;;;;;4149740;28;20046;-56
2024/03/27 07:53:43;;;;;;;0.15;0.15;;;9.00;99.20;;;;;;4149627;28;20058;-56
2024/03/27 07:55:44;;;;;;;0.65;0.20;;;9.20;98.80;;;;;;4149722;28;20045;-56
2024/03/27 07:57:46;;;;;;;1.45;0.32;;;9.30;98.60;;;;;;4148926;28;20064;-57
2024/03/27 07:59:48;;;;;;;0.35;0.35;;;9.10;98.60;;;;;;4149314;28;20052;-55
2024/03/27 08:01:50;;;;;;;0.35;0.35;;;9.10;98.70;;;;;;4149532;28;20061;-55
2024/03/27 08:03:52;;;;;;;0.10;0.10;;;9.10;98.20;;;;;;4149537;28;20057;-54
2024/03/27 08:05:53;;;;;;;0.10;0.10;;;9.10;98.70;;;;;;4149526;28;20046;-55
2024/03/27 08:07:56;;;;;;;0.17;0.15;;;9.10;98.90;;;;;;4149376;28;20045;-56
2024/03/27 08:09:59;;;;;;;0.30;0.30;;;9.10;98.50;;;;;;4149683;28;20054;-55
2024/03/27 08:12:02;;;;;;;2.08;1.33;;;9.20;98.70;;;;;;4149216;28;20058;-55
2024/03/27 08:14:04;;;;;;;0.10;0.10;;;9.20;98.10;;;;;;4149008;28;20050;-55
2024/03/27 08:16:06;;;;;;;0.68;0.20;;;9.10;98.50;;;;;;4149412;28;20517;-56
2024/03/27 08:18:08;;;;;;;1.23;0.88;;;9.20;98.50;;;;;;4149400;28;20061;-55
2024/03/27 08:20:11;;;;;;;0.20;0.20;;;9.20;98.50;;;;;;4149128;28;20049;-55
2024/03/27 08:22:13;;;;;;;0.17;0.17;;;9.20;98.40;;;;;;4149106;28;20056;-56
2024/03/27 08:24:15;;;;;;;0.30;0.30;;;9.10;98.80;;;;;;4148990;28;20054;-57
2024/03/27 08:26:18;;;;;;;0.10;0.10;;;9.10;98.80;;;;;;4149174;28;20058;-56
2024/03/27 08:28:19;;;;;;;0.95;0.10;;;9.10;99.00;;;;;;4148562;28;20042;-56
2024/03/27 08:30:21;;;;;;;0.30;0.30;;;9.20;98.90;;;;;;4149110;28;20573;-56
2024/03/27 08:32:23;;;;;;;0.40;0.30;;;9.20;98.70;;;;;;4149058;28;20056;-56
2024/03/27 08:34:25;;;;;;;0.40;0.15;;;9.10;98.20;;;;;;4149105;28;20045;-57
2024/03/27 08:36:26;;;;;;;0.10;0.10;;;9.10;98.30;;;;;;4148598;28;20060;-56
2024/03/27 08:38:28;;;;;;;0.93;0.20;;;9.10;98.30;;;;;;4148884;28;20046;-54
2024/03/27 08:40:29;;;;;;;0.10;0.10;;;9.20;98.20;;;;;;4148605;28;20061;-54
2024/03/27 08:42:32;;;;;;;0.47;0.30;;;9.30;97.90;;;;;;4148368;28;20056;-54
2024/03/27 08:44:34;;;;;;;2.90;0.45;;;9.40;97.90;;;;;;4148821;28;20100;-56
2024/03/27 08:46:36;;;;;;;0.70;0.70;;;9.50;97.70;;;;;;4148849;28;20057;-56
2024/03/27 08:48:37;;;;;;;0.20;0.20;;;9.40;97.90;;;;;;4148438;28;20056;-56
2024/03/27 08:50:39;;;;;;;1.35;0.93;;;9.50;97.20;;;;;;4148735;28;20046;-56
2024/03/27 08:52:41;;;;;;;0.15;0.15;;;9.50;97.40;;;;;;4148491;28;20060;-57
2024/03/27 08:54:43;;;;;;;3.63;0.17;;;9.40;97.20;;;;;;4147528;28;20050;-56
2024/03/27 08:56:44;;;;;;;0.10;0.10;;;9.80;98.90;;;;;;4145401;28;20571;-57
2024/03/27 08:58:47;;;;;;;0.13;0.13;;;9.90;97.40;;;;;;4143291;28;20208;-60
2024/03/27 09:00:49;;;;;;;0.20;0.10;;;10.20;97.20;;;;;;4158809;28;20064;-55
2024/03/27 09:02:50;;;;;;;0.63;0.25;;;10.20;95.90;;;;;;4144537;28;20505;-56
2024/03/27 09:04:52;;;;;;;0.10;0.10;;;10.00;96.10;;;;;;4144133;28;20054;-57
2024/03/27 09:06:54;;;;;;;0.10;0.10;;;10.10;95.90;;;;;;4146502;28;20057;-53
2024/03/27 09:08:55;;;;;;;0.05;0.05;;;10.20;96.10;;;;;;4141736;28;20046;-56
2024/03/27 09:10:57;;;;;;;1.27;0.70;;;10.20;95.80;;;;;;4143337;28;20054;-56
2024/03/27 09:12:59;;;;;;;0.68;0.38;;;10.50;96.20;;;;;;4142750;28;20060;-56
2024/03/27 09:15:02;;;;;;;0.10;0.10;;;10.60;95.70;;;;;;4139305;28;20059;-57
2024/03/27 09:17:04;;;;;;;0.20;0.20;;;10.50;95.40;;;;;;4139171;28;20060;-56
2024/03/27 09:19:05;;;;;;;0.32;0.32;;;10.40;95.70;;;;;;4145056;28;20054;-56
2024/03/27 09:21:07;;;;;;;0.10;0.10;;;10.40;96.00;;;;;;4141137;28;20059;-57
2024/03/27 09:23:08;;;;;;;0.10;0.10;;;10.50;95.80;;;;;;4139058;28;20515;-57
2024/03/27 09:25:10;;;;;;;0.60;0.22;;;10.40;95.80;;;;;;4140201;28;20170;-56
2024/03/27 09:27:12;;;;;;;0.20;0.20;;;10.20;95.90;;;;;;4139008;28;20050;-55
2024/03/27 09:29:13;;;;;;;0.20;0.20;;;10.00;96.30;;;;;;4139262;28;20068;-55
2024/03/27 09:31:16;;;;;;;0.60;0.20;;;10.00;96.40;;;;;;4140988;28;20490;-56
2024/03/27 09:33:18;;;;;;;0.40;0.40;;;10.10;96.60;;;;;;4138689;28;20050;-55
2024/03/27 09:35:20;;;;;;;0.10;0.10;;;10.00;96.80;;;;;;4138505;28;20106;-55
2024/03/27 09:37:22;;;;;;;0.35;0.15;;;9.90;97.10;;;;;;4140299;28;20087;-55
2024/03/27 09:39:24;;;;;;;1.00;0.43;;;9.80;97.10;;;;;;4138248;28;20042;-54
2024/03/27 09:41:26;;;;;;;1.55;0.38;;;9.80;97.40;;;;;;4138582;28;20511;-54
2024/03/27 09:43:29;;;;;;;0.82;0.80;;;9.70;97.40;;;;;;4138673;28;20547;-54
2024/03/27 09:45:34;;;;;;;0.30;0.10;;;9.70;97.90;;;;;;4138540;28;20042;-54
2024/03/27 09:47:39;;;;;;;0.20;0.20;;;9.70;98.20;;;;;;4138478;28;20466;-55
2024/03/27 09:49:41;;;;;;;0.25;0.20;;;9.80;98.00;;;;;;4141236;28;20069;-55
2024/03/27 09:51:43;;;;;;;0.43;0.20;;;10.00;97.80;;;;;;4138680;28;20046;-54
2024/03/27 09:53:45;;;;;;;0.32;0.20;;;10.30;97.50;;;;;;4138163;28;20052;-54
2024/03/27 09:55:48;;;;;;;0.20;0.20;;;10.50;97.00;;;;;;4139235;28;20358;-55
2024/03/27 09:57:50;;;;;;;0.20;0.20;;;10.50;96.90;;;;;;4137952;28;20050;-55
2024/03/27 09:59:52;;;;;;;8.32;1.25;;;10.60;96.30;;;;;;4122159;28;20062;-56
2024/03/27 10:02:00;;;;;;;0.20;0.20;;;10.70;96.40;;;;;;4141618;28;20046;-57
2024/03/27 10:04:04;;;;;;;0.32;0.32;;;10.90;96.10;;;;;;4141492;28;20050;-54
2024/03/27 10:06:07;;;;;;;0.20;0.20;;;11.10;96.00;;;;;;4144160;28;20054;-55
2024/03/27 10:08:09;;;;;;;0.35;0.30;;;11.30;95.60;;;;;;4145802;28;20068;-57
2024/03/27 10:10:11;;;;;;;0.17;0.17;;;11.30;96.00;;;;;;4145882;28;20537;-57
2024/03/27 10:12:12;;;;;;;0.35;0.10;;;11.30;95.10;;;;;;4145490;28;20060;-55
2024/03/27 10:14:14;;;;;;;0.20;0.10;;;11.30;94.70;;;;;;4145999;28;20045;-57
2024/03/27 10:16:17;;;;;;;0.30;0.30;;;11.20;94.60;;;;;;4145941;28;20616;-57
2024/03/27 10:18:19;;;;;;;0.10;0.05;;;11.20;95.20;;;;;;4145888;28;20066;-57
2024/03/27 10:20:23;;;;;;;0.10;0.10;;;11.20;94.50;;;;;;4146319;28;20064;-56
2024/03/27 10:22:26;;;;;;;0.08;0.08;;;11.20;94.40;;;;;;4145721;28;20050;-57
2024/03/27 10:24:28;;;;;;;0.32;0.20;;;11.10;94.20;;;;;;4145152;28;20046;-57
2024/03/27 10:26:30;;;;;;;0.00;0.00;;;11.20;94.20;;;;;;4145975;28;20060;-55
2024/03/27 10:28:32;;;;;;;0.10;0.10;;;11.20;94.20;;;;;;4145905;28;20054;-55
2024/03/27 10:30:34;;;;;;;0.20;0.15;;;11.20;93.90;;;;;;4146384;28;20065;-56
2024/03/27 10:32:36;;;;;;;2.63;1.13;;;11.10;93.90;;;;;;4146171;28;20060;-56
2024/03/27 10:34:39;;;;;;;0.00;0.00;;;11.20;94.20;;;;;;4142994;28;20545;-55
2024/03/27 10:36:45;;;;;;;0.20;0.17;;;11.10;94.10;;;;;;4139730;28;20421;-56
2024/03/27 10:38:47;;;;;;;0.15;0.15;;;11.10;94.20;;;;;;4129342;28;20054;-55
2024/03/27 10:40:52;;;;;;;0.13;0.13;;;11.20;93.90;;;;;;4131805;28;20042;-54
2024/03/27 10:43:02;;;;;;;0.85;0.20;;;11.30;94.10;;;;;;4129379;28;20046;-55